sensor_id;sensor_type;location;lat;lon;timestamp;temperature;humidity
7936;DHT22;4013;49.744;8.118;2024-01-27T05:32:16;2.10;99.90
7936;DHT22;4013;49.744;8.118;2024-01-27T05:34:44;2.10;99.90
7936;DHT22;4013;49.744;8.118;2024-01-27T05:37:11;2.10;99.90
7936;DHT22;4013;49.744;8.118;2024-01-27T05:39:38;2.10;99.90
7936;DHT22;4013;49.744;8.118;2024-01-27T05:42:05;2.10;99.90
7936;DHT22;4013;49.744;8.118;2024-01-27T05:44:32;2.00;99.90
7936;DHT22;4013;49.744;8.118;2024-01-27T05:46:59;2.00;99.90
7936;DHT22;4013;49.744;8.118;2024-01-27T05:49:27;1.90;99.90
7936;DHT22;4013;49.744;8.118;2024-01-27T05:51:54;1.90;99.90
7936;DHT22;4013;49.744;8.118;2024-01-27T05:54:21;1.90;99.90
7936;DHT22;4013;49.744;8.118;2024-01-27T05:56:48;1.80;99.90
7936;DHT22;4013;49.744;8.118;2024-01-27T05:59:14;1.80;99.90
7936;DHT22;4013;49.744;8.118;2024-01-27T06:01:41;1.80;99.90
7936;DHT22;4013;49.744;8.118;2024-01-27T06:04:10;1.80;99.90
7936;DHT22;4013;49.744;8.118;2024-01-27T06:06:39;1.80;99.90
7936;DHT22;4013;49.744;8.118;2024-01-27T06:09:07;1.80;99.90
7936;DHT22;4013;49.744;8.118;2024-01-27T06:11:37;1.80;99.90
7936;DHT22;4013;49.744;8.118;2024-01-27T06:14:03;1.80;99.90
7936;DHT22;4013;49.744;8.118;2024-01-27T06:16:32;1.80;99.90
7936;DHT22;4013;49.744;8.118;2024-01-27T06:19:00;1.70;99.90
7936;DHT22;4013;49.744;8.118;2024-01-27T06:21:27;1.70;99.90
7936;DHT22;4013;49.744;8.118;2024-01-27T06:23:56;1.70;99.90
7936;DHT22;4013;49.744;8.118;2024-01-27T06:26:22;1.70;99.90
7936;DHT22;4013;49.744;8.118;2024-01-27T06:28:49;1.70;99.90
7936;DHT22;4013;49.744;8.118;2024-01-27T06:31:16;1.80;99.90
7936;DHT22;4013;49.744;8.118;2024-01-27T06:33:43;1.70;99.90
7936;DHT22;4013;49.744;8.118;2024-01-27T06:36:10;1.70;99.90
7936;DHT22;4013;49.744;8.118;2024-01-27T06:38:37;1.70;99.90
7936;DHT22;4013;49.744;8.118;2024-01-27T06:41:06;1.60;99.90
7936;DHT22;4013;49.744;8.118;2024-01-27T06:43:34;1.60;99.90
7936;DHT22;4013;49.744;8.118;2024-01-27T06:46:01;1.60;99.90
7936;DHT22;4013;49.744;8.118;2024-01-27T06:48:28;1.60;99.90
7936;DHT22;4013;49.744;8.118;2024-01-27T06:50:56;1.50;99.90
7936;DHT22;4013;49.744;8.118;2024-01-27T06:53:23;1.60;99.90
7936;DHT22;4013;49.744;8.118;2024-01-27T06:55:50;1.70;99.90
7936;DHT22;4013;49.744;8.118;2024-01-27T06:58:18;1.70;99.90
7936;DHT22;4013;49.744;8.118;2024-01-27T07:00:45;1.60;99.90
7936;DHT22;4013;49.744;8.118;2024-01-27T07:03:12;1.60;99.90
7936;DHT22;4013;49.744;8.118;2024-01-27T07:05:39;1.60;99.90
7936;DHT22;4013;49.744;8.118;2024-01-27T07:08:06;1.50;99.90
7936;DHT22;4013;49.744;8.118;2024-01-27T07:10:34;1.60;99.90
7936;DHT22;4013;49.744;8.118;2024-01-27T07:13:01;1.50;99.90
7936;DHT22;4013;49.744;8.118;2024-01-27T07:15:29;1.50;99.90
7936;DHT22;4013;49.744;8.118;2024-01-27T07:17:56;1.60;99.90
7936;DHT22;4013;49.744;8.118;2024-01-27T07:20:23;1.60;99.90
7936;DHT22;4013;49.744;8.118;2024-01-27T07:22:50;1.60;99.90
7936;DHT22;4013;49.744;8.118;2024-01-27T07:25:17;1.60;99.90
7936;DHT22;4013;49.744;8.118;2024-01-27T07:27:44;1.60;99.90
7936;DHT22;4013;49.744;8.118;2024-01-27T07:30:12;1.50;99.90
7936;DHT22;4013;49.744;8.118;2024-01-27T07:32:40;1.60;99.90
7936;DHT22;4013;49.744;8.118;2024-01-27T07:35:08;1.60;99.90
7936;DHT22;4013;49.744;8.118;2024-01-27T07:37:35;1.60;99.90
7936;DHT22;4013;49.744;8.118;2024-01-27T07:40:03;1.50;99.90
7936;DHT22;4013;49.744;8.118;2024-01-27T07:42:31;1.60;99.90
7936;DHT22;4013;49.744;8.118;2024-01-27T07:44:58;1.60;99.90
7936;DHT22;4013;49.744;8.118;2024-01-27T07:47:25;1.70;99.90
7936;DHT22;4013;49.744;8.118;2024-01-27T07:49:53;1.60;99.90
7936;DHT22;4013;49.744;8.118;2024-01-27T07:52:20;1.50;99.90
7936;DHT22;4013;49.744;8.118;2024-01-27T07:54:47;1.50;99.90
7936;DHT22;4013;49.744;8.118;2024-01-27T07:57:14;1.60;99.90
7936;DHT22;4013;49.744;8.118;2024-01-27T07:59:41;1.60;99.90
7936;DHT22;4013;49.744;8.118;2024-01-27T08:02:08;1.60;99.90
7936;DHT22;4013;49.744;8.118;2024-01-27T08:04:35;1.60;99.90
7936;DHT22;4013;49.744;8.118;2024-01-27T08:07:03;1.70;99.90
7936;DHT22;4013;49.744;8.118;2024-01-27T08:09:35;1.70;99.90
7936;DHT22;4013;49.744;8.118;2024-01-27T08:12:02;1.80;99.90
7936;DHT22;4013;49.744;8.118;2024-01-27T08:14:29;1.70;99.90
7936;DHT22;4013;49.744;8.118;2024-01-27T08:16:56;1.80;99.90
7936;DHT22;4013;49.744;8.118;2024-01-27T08:19:23;1.80;99.90
7936;DHT22;4013;49.744;8.118;2024-01-27T08:21:50;1.80;99.90
7936;DHT22;4013;49.744;8.118;2024-01-27T08:24:19;1.90;99.90
7936;DHT22;4013;49.744;8.118;2024-01-27T08:26:47;2.00;99.90
7936;DHT22;4013;49.744;8.118;2024-01-27T08:29:14;2.10;99.90
7936;DHT22;4013;49.744;8.118;2024-01-27T08:31:41;2.20;99.90
7936;DHT22;4013;49.744;8.118;2024-01-27T08:34:08;2.20;99.90
7936;DHT22;4013;49.744;8.118;2024-01-27T08:36:38;2.20;99.90
7936;DHT22;4013;49.744;8.118;2024-01-27T08:39:05;2.20;99.90
7936;DHT22;4013;49.744;8.118;2024-01-27T08:41:35;2.30;99.90
7936;DHT22;4013;49.744;8.118;2024-01-27T08:44:02;2.40;99.90
7936;DHT22;4013;49.744;8.118;2024-01-27T08:46:29;2.50;99.90
7936;DHT22;4013;49.744;8.118;2024-01-27T08:48:56;2.60;99.90
7936;DHT22;4013;49.744;8.118;2024-01-27T08:51:23;2.70;99.90
7936;DHT22;4013;49.744;8.118;2024-01-27T08:53:50;2.70;99.90
7936;DHT22;4013;49.744;8.118;2024-01-27T08:56:17;2.80;99.90
7936;DHT22;4013;49.744;8.118;2024-01-27T08:58:46;2.90;99.90
7936;DHT22;4013;49.744;8.118;2024-01-27T09:01:13;2.90;99.90
7936;DHT22;4013;49.744;8.118;2024-01-27T09:03:42;3.00;99.90
7936;DHT22;4013;49.744;8.118;2024-01-27T09:06:09;3.10;99.90
7936;DHT22;4013;49.744;8.118;2024-01-27T09:08:36;3.20;99.90
7936;DHT22;4013;49.744;8.118;2024-01-27T09:11:03;3.20;99.90
7936;DHT22;4013;49.744;8.118;2024-01-27T09:13:30;3.20;99.90
7936;DHT22;4013;49.744;8.118;2024-01-27T09:15:59;3.20;99.90
7936;DHT22;4013;49.744;8.118;2024-01-27T09:18:26;3.30;99.90
7936;DHT22;4013;49.744;8.118;2024-01-27T09:20:53;3.40;99.90
7936;DHT22;4013;49.744;8.118;2024-01-27T09:23:20;3.50;99.90
7936;DHT22;4013;49.744;8.118;2024-01-27T09:25:47;3.50;99.90
7936;DHT22;4013;49.744;8.118;2024-01-27T09:28:13;3.60;99.90
7936;DHT22;4013;49.744;8.118;2024-01-27T09:30:41;3.70;99.90
7936;DHT22;4013;49.744;8.118;2024-01-27T09:33:09;3.70;99.90
7936;DHT22;4013;49.744;8.118;2024-01-27T09:35:36;3.80;99.90
7936;DHT22;4013;49.744;8.118;2024-01-27T09:38:04;3.90;99.90
7936;DHT22;4013;49.744;8.118;2024-01-27T09:40:33;4.00;99.90
7936;DHT22;4013;49.744;8.118;2024-01-27T09:43:00;4.10;99.90
7936;DHT22;4013;49.744;8.118;2024-01-27T09:45:27;4.20;99.90
7936;DHT22;4013;49.744;8.118;2024-01-27T09:47:57;4.20;99.90
7936;DHT22;4013;49.744;8.118;2024-01-27T09:50:26;4.10;99.90
7936;DHT22;4013;49.744;8.118;2024-01-27T09:52:53;4.00;99.90
7936;DHT22;4013;49.744;8.118;2024-01-27T09:55:20;4.00;99.90
7936;DHT22;4013;49.744;8.118;2024-01-27T09:57:48;4.00;99.90
7936;DHT22;4013;49.744;8.118;2024-01-27T10:00:15;3.90;99.90
7936;DHT22;4013;49.744;8.118;2024-01-27T10:02:45;3.90;99.90
7936;DHT22;4013;49.744;8.118;2024-01-27T10:05:13;3.90;99.90
7936;DHT22;4013;49.744;8.118;2024-01-27T10:07:41;3.90;99.90
7936;DHT22;4013;49.744;8.118;2024-01-27T10:10:09;4.00;99.90
7936;DHT22;4013;49.744;8.118;2024-01-27T10:12:40;4.00;99.90
7936;DHT22;4013;49.744;8.118;2024-01-27T10:15:18;4.20;99.90
7936;DHT22;4013;49.744;8.118;2024-01-27T10:17:45;4.40;99.90
7936;DHT22;4013;49.744;8.118;2024-01-27T10:20:12;4.50;99.90
7936;DHT22;4013;49.744;8.118;2024-01-27T10:22:43;4.60;99.90
7936;DHT22;4013;49.744;8.118;2024-01-27T10:25:11;4.60;99.90
7936;DHT22;4013;49.744;8.118;2024-01-27T10:27:39;4.60;99.90
7936;DHT22;4013;49.744;8.118;2024-01-27T10:30:15;4.70;99.90
7936;DHT22;4013;49.744;8.118;2024-01-27T10:32:44;4.80;99.90
7936;DHT22;4013;49.744;8.118;2024-01-27T10:35:22;4.80;99.90
7936;DHT22;4013;49.744;8.118;2024-01-27T10:37:53;4.90;99.90
7936;DHT22;4013;49.744;8.118;2024-01-27T10:40:20;4.90;99.90
7936;DHT22;4013;49.744;8.118;2024-01-27T10:43:00;4.80;99.90
7936;DHT22;4013;49.744;8.118;2024-01-27T10:45:29;4.90;99.90
7936;DHT22;4013;49.744;8.118;2024-01-27T10:48:02;4.90;99.90
7936;DHT22;4013;49.744;8.118;2024-01-27T10:50:29;4.90;99.90
7936;DHT22;4013;49.744;8.118;2024-01-27T10:53:00;5.00;99.90
7936;DHT22;4013;49.744;8.118;2024-01-27T10:55:28;5.00;99.90
7936;DHT22;4013;49.744;8.118;2024-01-27T10:57:55;5.10;99.90
7936;DHT22;4013;49.744;8.118;2024-01-27T11:00:24;5.10;99.90
7936;DHT22;4013;49.744;8.118;2024-01-27T11:02:52;5.20;99.90
7936;DHT22;4013;49.744;8.118;2024-01-27T11:05:22;5.30;99.90
7936;DHT22;4013;49.744;8.118;2024-01-27T11:07:51;5.30;99.90
7936;DHT22;4013;49.744;8.118;2024-01-27T11:10:19;5.40;99.90
7936;DHT22;4013;49.744;8.118;2024-01-27T11:12:48;5.40;99.90
7936;DHT22;4013;49.744;8.118;2024-01-27T11:15:18;5.60;99.90
7936;DHT22;4013;49.744;8.118;2024-01-27T11:17:45;5.60;99.90
7936;DHT22;4013;49.744;8.118;2024-01-27T11:20:12;5.60;99.90
7936;DHT22;4013;49.744;8.118;2024-01-27T11:22:43;5.70;99.90
7936;DHT22;4013;49.744;8.118;2024-01-27T11:25:15;5.80;99.90
7936;DHT22;4013;49.744;8.118;2024-01-27T11:27:45;5.80;99.90
7936;DHT22;4013;49.744;8.118;2024-01-27T11:30:25;5.90;99.90
7936;DHT22;4013;49.744;8.118;2024-01-27T11:32:53;5.90;99.90
7936;DHT22;4013;49.744;8.118;2024-01-27T11:35:20;5.80;99.90
7936;DHT22;4013;49.744;8.118;2024-01-27T11:37:47;5.80;99.90
7936;DHT22;4013;49.744;8.118;2024-01-27T11:40:14;5.90;99.90
7936;DHT22;4013;49.744;8.118;2024-01-27T11:42:41;5.80;99.90
7936;DHT22;4013;49.744;8.118;2024-01-27T11:45:10;5.80;99.90
7936;DHT22;4013;49.744;8.118;2024-01-27T11:47:37;5.80;99.90
7936;DHT22;4013;49.744;8.118;2024-01-27T11:50:05;5.80;99.90
7936;DHT22;4013;49.744;8.118;2024-01-27T11:52:33;5.80;99.90
7936;DHT22;4013;49.744;8.118;2024-01-27T11:55:01;5.80;99.90
7936;DHT22;4013;49.744;8.118;2024-01-27T11:57:28;5.90;99.90
7936;DHT22;4013;49.744;8.118;2024-01-27T11:59:55;5.90;99.90
7936;DHT22;4013;49.744;8.118;2024-01-27T12:02:24;6.00;99.90
7936;DHT22;4013;49.744;8.118;2024-01-27T12:04:51;6.00;99.90
7936;DHT22;4013;49.744;8.118;2024-01-27T12:07:19;6.10;99.90
7936;DHT22;4013;49.744;8.118;2024-01-27T12:09:48;6.20;99.90
7936;DHT22;4013;49.744;8.118;2024-01-27T12:12:15;6.20;99.90
7936;DHT22;4013;49.744;8.118;2024-01-27T12:14:46;6.30;99.90
7936;DHT22;4013;49.744;8.118;2024-01-27T12:17:13;6.40;99.90
7936;DHT22;4013;49.744;8.118;2024-01-27T12:19:47;6.50;99.90
7936;DHT22;4013;49.744;8.118;2024-01-27T12:22:22;6.40;99.90
7936;DHT22;4013;49.744;8.118;2024-01-27T12:24:49;6.50;99.90
7936;DHT22;4013;49.744;8.118;2024-01-27T12:27:16;6.50;99.90
7936;DHT22;4013;49.744;8.118;2024-01-27T12:29:44;6.50;99.90
7936;DHT22;4013;49.744;8.118;2024-01-27T12:32:12;6.60;99.90
7936;DHT22;4013;49.744;8.118;2024-01-27T12:34:40;6.60;99.90
7936;DHT22;4013;49.744;8.118;2024-01-27T12:37:11;6.60;99.90
7936;DHT22;4013;49.744;8.118;2024-01-27T12:39:41;6.60;99.90
7936;DHT22;4013;49.744;8.118;2024-01-27T12:42:09;6.60;99.90
7936;DHT22;4013;49.744;8.118;2024-01-27T12:44:35;6.60;99.90
7936;DHT22;4013;49.744;8.118;2024-01-27T12:47:03;6.60;99.90
7936;DHT22;4013;49.744;8.118;2024-01-27T12:49:29;6.60;99.90
7936;DHT22;4013;49.744;8.118;2024-01-27T12:51:56;6.60;99.90
7936;DHT22;4013;49.744;8.118;2024-01-27T12:54:25;6.70;99.90
7936;DHT22;4013;49.744;8.118;2024-01-27T12:56:52;6.70;99.90
7936;DHT22;4013;49.744;8.118;2024-01-27T12:59:19;6.80;99.90
7936;DHT22;4013;49.744;8.118;2024-01-27T13:01:46;6.90;99.90
7936;DHT22;4013;49.744;8.118;2024-01-27T13:04:13;7.00;99.90
7936;DHT22;4013;49.744;8.118;2024-01-27T13:06:40;7.00;99.90
7936;DHT22;4013;49.744;8.118;2024-01-27T13:09:08;7.10;99.90
7936;DHT22;4013;49.744;8.118;2024-01-27T13:11:38;7.20;99.90
7936;DHT22;4013;49.744;8.118;2024-01-27T13:14:05;7.20;99.90
7936;DHT22;4013;49.744;8.118;2024-01-27T13:16:34;7.30;99.90
7936;DHT22;4013;49.744;8.118;2024-01-27T13:19:02;7.30;99.90
7936;DHT22;4013;49.744;8.118;2024-01-27T13:21:28;7.40;99.90
7936;DHT22;4013;49.744;8.118;2024-01-27T13:23:55;7.40;99.90
7936;DHT22;4013;49.744;8.118;2024-01-27T13:26:22;7.30;99.90
7936;DHT22;4013;49.744;8.118;2024-01-27T13:28:51;7.20;99.90
7936;DHT22;4013;49.744;8.118;2024-01-27T13:31:17;7.20;99.90
7936;DHT22;4013;49.744;8.118;2024-01-27T13:33:44;7.30;99.90
7936;DHT22;4013;49.744;8.118;2024-01-27T13:36:11;7.30;99.90
7936;DHT22;4013;49.744;8.118;2024-01-27T13:38:38;7.80;99.90
7936;DHT22;4013;49.744;8.118;2024-01-27T13:41:05;8.50;99.90
7936;DHT22;4013;49.744;8.118;2024-01-27T13:43:32;9.30;99.90
7936;DHT22;4013;49.744;8.118;2024-01-27T13:46:00;10.00;99.90
7936;DHT22;4013;49.744;8.118;2024-01-27T13:48:27;10.50;99.90
7936;DHT22;4013;49.744;8.118;2024-01-27T13:50:54;10.90;99.90
7936;DHT22;4013;49.744;8.118;2024-01-27T13:53:21;11.20;99.90
7936;DHT22;4013;49.744;8.118;2024-01-27T13:55:49;11.60;99.90
7936;DHT22;4013;49.744;8.118;2024-01-27T13:58:16;11.70;99.90
7936;DHT22;4013;49.744;8.118;2024-01-27T14:00:44;11.30;99.90
7936;DHT22;4013;49.744;8.118;2024-01-27T14:03:12;10.70;99.90
7936;DHT22;4013;49.744;8.118;2024-01-27T14:05:39;9.90;99.90
7936;DHT22;4013;49.744;8.118;2024-01-27T14:08:07;9.30;99.90
7936;DHT22;4013;49.744;8.118;2024-01-27T14:10:35;8.80;99.90
7936;DHT22;4013;49.744;8.118;2024-01-27T14:13:02;8.40;99.90
7936;DHT22;4013;49.744;8.118;2024-01-27T14:15:34;8.10;99.90
7936;DHT22;4013;49.744;8.118;2024-01-27T14:18:01;8.00;99.90
7936;DHT22;4013;49.744;8.118;2024-01-27T14:20:31;7.80;99.90
7936;DHT22;4013;49.744;8.118;2024-01-27T14:22:59;7.60;99.90
7936;DHT22;4013;49.744;8.118;2024-01-27T14:25:26;7.50;99.90
7936;DHT22;4013;49.744;8.118;2024-01-27T14:27:53;7.30;99.90
7936;DHT22;4013;49.744;8.118;2024-01-27T14:30:20;7.20;99.90
7936;DHT22;4013;49.744;8.118;2024-01-27T14:32:48;7.30;99.90
7936;DHT22;4013;49.744;8.118;2024-01-27T14:35:16;7.30;99.90
7936;DHT22;4013;49.744;8.118;2024-01-27T14:37:44;7.30;99.90
7936;DHT22;4013;49.744;8.118;2024-01-27T14:40:12;7.20;99.90
7936;DHT22;4013;49.744;8.118;2024-01-27T14:42:39;7.10;99.90
7936;DHT22;4013;49.744;8.118;2024-01-27T14:45:08;7.10;99.90
7936;DHT22;4013;49.744;8.118;2024-01-27T14:47:35;7.10;99.90
7936;DHT22;4013;49.744;8.118;2024-01-27T14:50:02;7.10;99.90
7936;DHT22;4013;49.744;8.118;2024-01-27T14:52:30;7.10;99.90
7936;DHT22;4013;49.744;8.118;2024-01-27T14:54:59;7.00;99.90
7936;DHT22;4013;49.744;8.118;2024-01-27T14:57:26;7.00;99.90
7936;DHT22;4013;49.744;8.118;2024-01-27T14:59:53;6.90;99.90
7936;DHT22;4013;49.744;8.118;2024-01-27T15:02:19;6.80;99.90
7936;DHT22;4013;49.744;8.118;2024-01-27T15:04:46;6.80;99.90
7936;DHT22;4013;49.744;8.118;2024-01-27T15:07:13;6.80;99.90
7936;DHT22;4013;49.744;8.118;2024-01-27T15:09:41;6.80;99.90
7936;DHT22;4013;49.744;8.118;2024-01-27T15:12:09;6.70;99.90
7936;DHT22;4013;49.744;8.118;2024-01-27T15:14:38;6.60;99.90
7936;DHT22;4013;49.744;8.118;2024-01-27T15:17:06;6.60;99.90
7936;DHT22;4013;49.744;8.118;2024-01-27T15:19:33;6.60;99.90
7936;DHT22;4013;49.744;8.118;2024-01-27T15:22:00;6.60;99.90
7936;DHT22;4013;49.744;8.118;2024-01-27T15:24:27;6.50;99.90
7936;DHT22;4013;49.744;8.118;2024-01-27T15:26:54;6.50;99.90
7936;DHT22;4013;49.744;8.118;2024-01-27T15:29:23;6.50;99.90
7936;DHT22;4013;49.744;8.118;2024-01-27T15:31:50;6.40;99.90
7936;DHT22;4013;49.744;8.118;2024-01-27T15:34:18;6.40;99.90
7936;DHT22;4013;49.744;8.118;2024-01-27T15:36:45;6.30;99.90
7936;DHT22;4013;49.744;8.118;2024-01-27T15:39:12;6.30;99.90
7936;DHT22;4013;49.744;8.118;2024-01-27T15:41:39;6.30;99.90
7936;DHT22;4013;49.744;8.118;2024-01-27T15:44:06;6.30;99.90
7936;DHT22;4013;49.744;8.118;2024-01-27T15:46:34;6.30;99.90
7936;DHT22;4013;49.744;8.118;2024-01-27T15:49:01;6.30;99.90
7936;DHT22;4013;49.744;8.118;2024-01-27T15:51:28;6.30;99.90
7936;DHT22;4013;49.744;8.118;2024-01-27T15:53:55;6.20;99.90
7936;DHT22;4013;49.744;8.118;2024-01-27T15:56:22;6.20;99.90
7936;DHT22;4013;49.744;8.118;2024-01-27T15:58:49;6.10;99.90
7936;DHT22;4013;49.744;8.118;2024-01-27T16:01:16;6.10;99.90
7936;DHT22;4013;49.744;8.118;2024-01-27T16:03:44;6.00;99.90
7936;DHT22;4013;49.744;8.118;2024-01-27T16:06:12;5.90;99.90
7936;DHT22;4013;49.744;8.118;2024-01-27T16:08:39;5.80;99.90
7936;DHT22;4013;49.744;8.118;2024-01-27T16:11:06;5.70;99.90
7936;DHT22;4013;49.744;8.118;2024-01-27T16:13:33;5.70;99.90
7936;DHT22;4013;49.744;8.118;2024-01-27T16:16:01;5.60;99.90
7936;DHT22;4013;49.744;8.118;2024-01-27T16:18:28;5.50;99.90
7936;DHT22;4013;49.744;8.118;2024-01-27T16:20:56;5.50;99.90
7936;DHT22;4013;49.744;8.118;2024-01-27T16:23:23;5.40;99.90
7936;DHT22;4013;49.744;8.118;2024-01-27T16:25:50;5.30;99.90
7936;DHT22;4013;49.744;8.118;2024-01-27T16:28:17;5.30;99.90
7936;DHT22;4013;49.744;8.118;2024-01-27T16:30:44;5.30;99.90
7936;DHT22;4013;49.744;8.118;2024-01-27T16:33:11;5.20;99.90
7936;DHT22;4013;49.744;8.118;2024-01-27T16:35:37;5.10;99.90
7936;DHT22;4013;49.744;8.118;2024-01-27T16:38:06;5.00;99.90
7936;DHT22;4013;49.744;8.118;2024-01-27T16:40:33;5.00;99.90
7936;DHT22;4013;49.744;8.118;2024-01-27T16:42:59;5.00;99.90
7936;DHT22;4013;49.744;8.118;2024-01-27T16:45:26;4.90;99.90
7936;DHT22;4013;49.744;8.118;2024-01-27T16:47:58;4.80;99.90
7936;DHT22;4013;49.744;8.118;2024-01-27T16:50:25;4.80;99.90
7936;DHT22;4013;49.744;8.118;2024-01-27T16:52:52;4.70;99.90
7936;DHT22;4013;49.744;8.118;2024-01-27T16:55:20;4.70;99.90
7936;DHT22;4013;49.744;8.118;2024-01-27T16:57:47;4.70;99.90
7936;DHT22;4013;49.744;8.118;2024-01-27T17:00:15;4.60;99.90
7936;DHT22;4013;49.744;8.118;2024-01-27T17:02:42;4.60;99.90
7936;DHT22;4013;49.744;8.118;2024-01-27T17:05:09;4.50;99.90
7936;DHT22;4013;49.744;8.118;2024-01-27T17:07:36;4.50;99.90
7936;DHT22;4013;49.744;8.118;2024-01-27T17:10:04;4.50;99.90
7936;DHT22;4013;49.744;8.118;2024-01-27T17:12:32;4.50;99.90
7936;DHT22;4013;49.744;8.118;2024-01-27T17:15:00;4.40;99.90
7936;DHT22;4013;49.744;8.118;2024-01-27T17:17:30;4.40;99.90
7936;DHT22;4013;49.744;8.118;2024-01-27T17:19:57;4.30;99.90
7936;DHT22;4013;49.744;8.118;2024-01-27T17:22:24;4.30;99.90
7936;DHT22;4013;49.744;8.118;2024-01-27T17:24:51;4.20;99.90
7936;DHT22;4013;49.744;8.118;2024-01-27T17:27:18;4.20;99.90
7936;DHT22;4013;49.744;8.118;2024-01-27T17:29:46;4.20;99.90
7936;DHT22;4013;49.744;8.118;2024-01-27T17:32:13;4.20;99.90
7936;DHT22;4013;49.744;8.118;2024-01-27T17:34:40;4.20;99.90
7936;DHT22;4013;49.744;8.118;2024-01-27T17:37:08;4.20;99.90
7936;DHT22;4013;49.744;8.118;2024-01-27T17:39:34;4.10;99.90
7936;DHT22;4013;49.744;8.118;2024-01-27T17:42:02;4.00;99.90
7936;DHT22;4013;49.744;8.118;2024-01-27T17:44:29;3.90;99.90
7936;DHT22;4013;49.744;8.118;2024-01-27T17:46:58;4.00;99.90
7936;DHT22;4013;49.744;8.118;2024-01-27T17:49:25;4.10;99.90
7936;DHT22;4013;49.744;8.118;2024-01-27T17:51:52;4.10;99.90
7936;DHT22;4013;49.744;8.118;2024-01-27T17:54:19;4.10;99.90
7936;DHT22;4013;49.744;8.118;2024-01-27T17:56:46;3.90;99.90
7936;DHT22;4013;49.744;8.118;2024-01-27T17:59:12;3.80;99.90
7936;DHT22;4013;49.744;8.118;2024-01-27T18:01:39;3.70;99.90
7936;DHT22;4013;49.744;8.118;2024-01-27T18:04:08;3.60;99.90
7936;DHT22;4013;49.744;8.118;2024-01-27T18:06:35;3.50;99.90
7936;DHT22;4013;49.744;8.118;2024-01-27T18:09:03;3.40;99.90
7936;DHT22;4013;49.744;8.118;2024-01-27T18:11:31;3.40;99.90
7936;DHT22;4013;49.744;8.118;2024-01-27T18:13:57;3.40;99.90
7936;DHT22;4013;49.744;8.118;2024-01-27T18:16:24;3.40;99.90
7936;DHT22;4013;49.744;8.118;2024-01-27T18:18:51;3.30;99.90
7936;DHT22;4013;49.744;8.118;2024-01-27T18:21:20;3.30;99.90
7936;DHT22;4013;49.744;8.118;2024-01-27T18:23:47;3.20;99.90
7936;DHT22;4013;49.744;8.118;2024-01-27T18:26:14;3.10;99.90
7936;DHT22;4013;49.744;8.118;2024-01-27T18:28:40;3.10;99.90
7936;DHT22;4013;49.744;8.118;2024-01-27T18:31:07;3.00;99.90
7936;DHT22;4013;49.744;8.118;2024-01-27T18:33:35;2.90;99.90
7936;DHT22;4013;49.744;8.118;2024-01-27T18:36:03;2.90;99.90
7936;DHT22;4013;49.744;8.118;2024-01-27T18:38:31;2.90;99.90
7936;DHT22;4013;49.744;8.118;2024-01-27T18:40:58;2.90;99.90
7936;DHT22;4013;49.744;8.118;2024-01-27T18:43:25;2.80;99.90
7936;DHT22;4013;49.744;8.118;2024-01-27T18:45:52;2.80;99.90
7936;DHT22;4013;49.744;8.118;2024-01-27T18:48:19;2.80;99.90
7936;DHT22;4013;49.744;8.118;2024-01-27T18:50:45;2.70;99.90
7936;DHT22;4013;49.744;8.118;2024-01-27T18:53:12;2.70;99.90
7936;DHT22;4013;49.744;8.118;2024-01-27T18:55:40;2.60;99.90
7936;DHT22;4013;49.744;8.118;2024-01-27T18:58:07;2.50;99.90
7936;DHT22;4013;49.744;8.118;2024-01-27T19:00:34;2.50;99.90
7936;DHT22;4013;49.744;8.118;2024-01-27T19:03:03;2.50;99.90
7936;DHT22;4013;49.744;8.118;2024-01-27T19:05:32;2.40;99.90
7936;DHT22;4013;49.744;8.118;2024-01-27T19:07:59;2.40;99.90
7936;DHT22;4013;49.744;8.118;2024-01-27T19:10:26;2.30;99.90
7936;DHT22;4013;49.744;8.118;2024-01-27T19:12:55;2.30;99.90
7936;DHT22;4013;49.744;8.118;2024-01-27T19:15:21;2.30;99.90
7936;DHT22;4013;49.744;8.118;2024-01-27T19:17:49;2.30;99.90
7936;DHT22;4013;49.744;8.118;2024-01-27T19:20:16;2.30;99.90
7936;DHT22;4013;49.744;8.118;2024-01-27T19:22:42;2.30;99.90
7936;DHT22;4013;49.744;8.118;2024-01-27T19:25:12;2.30;99.90
7936;DHT22;4013;49.744;8.118;2024-01-27T19:27:40;2.20;99.90
7936;DHT22;4013;49.744;8.118;2024-01-27T19:30:09;2.20;99.90
7936;DHT22;4013;49.744;8.118;2024-01-27T19:32:36;2.10;99.90
7936;DHT22;4013;49.744;8.118;2024-01-27T19:35:03;2.10;99.90
7936;DHT22;4013;49.744;8.118;2024-01-27T19:37:30;2.10;99.90
7936;DHT22;4013;49.744;8.118;2024-01-27T19:39:58;2.10;99.90
7936;DHT22;4013;49.744;8.118;2024-01-27T19:42:25;2.00;99.90
7936;DHT22;4013;49.744;8.118;2024-01-27T19:44:53;2.00;99.90
7936;DHT22;4013;49.744;8.118;2024-01-27T19:47:21;2.00;99.90
7936;DHT22;4013;49.744;8.118;2024-01-27T19:49:48;2.00;99.90
7936;DHT22;4013;49.744;8.118;2024-01-27T19:52:15;2.00;99.90
7936;DHT22;4013;49.744;8.118;2024-01-27T19:54:44;2.00;99.90
7936;DHT22;4013;49.744;8.118;2024-01-27T19:57:11;2.10;99.90
7936;DHT22;4013;49.744;8.118;2024-01-27T19:59:39;2.10;99.90
7936;DHT22;4013;49.744;8.118;2024-01-27T20:02:06;2.00;99.90
7936;DHT22;4013;49.744;8.118;2024-01-27T20:04:36;2.00;99.90
7936;DHT22;4013;49.744;8.118;2024-01-27T20:07:03;1.90;99.90
7936;DHT22;4013;49.744;8.118;2024-01-27T20:09:30;1.90;99.90
7936;DHT22;4013;49.744;8.118;2024-01-27T20:11:58;1.90;99.90
7936;DHT22;4013;49.744;8.118;2024-01-27T20:14:24;1.90;99.90
7936;DHT22;4013;49.744;8.118;2024-01-27T20:16:51;1.80;99.90
7936;DHT22;4013;49.744;8.118;2024-01-27T20:19:19;1.80;99.90
7936;DHT22;4013;49.744;8.118;2024-01-27T20:21:49;1.80;99.90
7936;DHT22;4013;49.744;8.118;2024-01-27T20:24:16;1.80;99.90
7936;DHT22;4013;49.744;8.118;2024-01-27T20:26:44;1.80;99.90
7936;DHT22;4013;49.744;8.118;2024-01-27T20:29:13;1.80;99.90
7936;DHT22;4013;49.744;8.118;2024-01-27T20:31:40;1.80;99.90
7936;DHT22;4013;49.744;8.118;2024-01-27T20:34:07;1.90;99.90
7936;DHT22;4013;49.744;8.118;2024-01-27T20:36:34;1.90;99.90
7936;DHT22;4013;49.744;8.118;2024-01-27T20:39:03;1.90;99.90
7936;DHT22;4013;49.744;8.118;2024-01-27T20:41:31;1.90;99.90
7936;DHT22;4013;49.744;8.118;2024-01-27T20:43:58;1.90;99.90
7936;DHT22;4013;49.744;8.118;2024-01-27T20:46:25;1.90;99.90
7936;DHT22;4013;49.744;8.118;2024-01-27T20:48:52;1.90;99.90
7936;DHT22;4013;49.744;8.118;2024-01-27T20:51:21;1.90;99.90
7936;DHT22;4013;49.744;8.118;2024-01-27T20:53:48;1.90;99.90
7936;DHT22;4013;49.744;8.118;2024-01-27T20:56:16;1.90;99.90
7936;DHT22;4013;49.744;8.118;2024-01-27T20:58:43;2.00;99.90
7936;DHT22;4013;49.744;8.118;2024-01-27T21:01:11;2.00;99.90
7936;DHT22;4013;49.744;8.118;2024-01-27T21:03:37;1.90;99.90
7936;DHT22;4013;49.744;8.118;2024-01-27T21:06:05;1.80;99.90
7936;DHT22;4013;49.744;8.118;2024-01-27T21:08:35;1.70;99.90
7936;DHT22;4013;49.744;8.118;2024-01-27T21:11:02;1.60;99.90
7936;DHT22;4013;49.744;8.118;2024-01-27T21:13:35;1.60;99.90
7936;DHT22;4013;49.744;8.118;2024-01-27T21:16:02;1.60;99.90
7936;DHT22;4013;49.744;8.118;2024-01-27T21:18:29;1.60;99.90
7936;DHT22;4013;49.744;8.118;2024-01-27T21:20:56;1.50;99.90
7936;DHT22;4013;49.744;8.118;2024-01-27T21:23:24;1.50;99.90
7936;DHT22;4013;49.744;8.118;2024-01-27T21:25:52;1.50;99.90
7936;DHT22;4013;49.744;8.118;2024-01-27T21:28:19;1.50;99.90
7936;DHT22;4013;49.744;8.118;2024-01-27T21:30:47;1.50;99.90
7936;DHT22;4013;49.744;8.118;2024-01-27T21:33:14;1.50;99.90
7936;DHT22;4013;49.744;8.118;2024-01-27T21:35:42;1.40;99.90
7936;DHT22;4013;49.744;8.118;2024-01-27T21:38:11;1.30;99.90
7936;DHT22;4013;49.744;8.118;2024-01-27T21:40:38;1.40;99.90
7936;DHT22;4013;49.744;8.118;2024-01-27T21:43:06;1.40;99.90
7936;DHT22;4013;49.744;8.118;2024-01-27T21:45:33;1.30;99.90
7936;DHT22;4013;49.744;8.118;2024-01-27T21:48:02;1.30;99.90
7936;DHT22;4013;49.744;8.118;2024-01-27T21:50:31;1.30;99.90